Weather reports worldwide

Advertisment
Capdepera,Faro, Spain (8311): temperature & dewpoint: 28.05.2020 20:00:00 - 03.06.2020 20:00:00 (CEST)Capdepera,Faro, Spain (8311): wind speed & gusts: 28.05.2020 20:00:00 - 03.06.2020 20:00:00 (CEST)Capdepera,Faro, Spain (8311): wind direction: 28.05.2020 20:00:00 - 03.06.2020 20:00:00 (CEST)Capdepera,Faro, Spain (8311): precipitation: 28.05.2020 20:00:00 - 03.06.2020 20:00:00 (CEST)
Date & Time tt [°C] td [°C] ff [km/h] ff [kn] fx [km/h] fx [kn] dd rr [mm]
03.06.2020 20:00:00 21,5 16,6 26 14 50 27 S -
03.06.2020 19:00:00 21,8 16,6 26 14 50 27 S 0,0
03.06.2020 18:00:00 22,2 16,9 29 16 45 24 S 0,0
03.06.2020 17:00:00 23,3 17,9 31 17 47 25 S 0,0
03.06.2020 16:00:00 23,0 17,5 31 17 43 23 S 0,0
03.06.2020 15:00:00 24,5 17,7 31 17 42 23 S 0,0
03.06.2020 14:00:00 23,9 17,4 34 18 41 22 S -
03.06.2020 13:00:00 23,2 17,6 35 19 40 21 S 0,0
03.06.2020 12:00:00 23,4 17,4 21 11 35 19 S 0,0
03.06.2020 11:00:00 23,1 18,2 25 13 29 16 S 0,0
03.06.2020 10:00:00 23,7 18,3 19 10 24 13 S 0,0
03.06.2020 09:00:00 22,4 17,3 13 7 19 11 S 0,0
03.06.2020 08:00:00 21,8 14,7 5 3 12 7 SW -
03.06.2020 07:00:00 20,5 13,5 0 0 9 5 SE 0,0
03.06.2020 06:00:00 19,7 13,2 1 1 10 5 SSW 0,0
03.06.2020 05:00:00 19,6 14,2 3 2 14 8 WSW 0,0
03.06.2020 04:00:00 19,9 14,7 6 3 16 9 WSW 0,0
03.06.2020 03:00:00 19,9 14,9 3 2 11 6 W 0,0
03.06.2020 02:00:00 20,1 16,6 1 1 11 6 WSW -
03.06.2020 01:00:00 20,4 17,1 2 1 15 8 WSW 0,0
03.06.2020 00:00:00 20,7 17,1 5 3 16 8 WSW 0,0
02.06.2020 23:00:00 21,0 16,8 4 2 16 8 WSW 0,0
02.06.2020 22:00:00 21,2 17,0 5 3 25 13 SW 0,0
02.06.2020 21:00:00 21,5 17,1 12 7 23 12 SSW 0,0
02.06.2020 20:00:00 21,8 17,0 10 5 22 12 SW -
02.06.2020 19:00:00 22,1 16,8 15 8 22 12 SSW 0,0
02.06.2020 18:00:00 23,2 16,7 17 9 22 12 S 0,0
02.06.2020 17:00:00 25,0 17,0 17 9 20 11 S 0,0
02.06.2020 16:00:00 25,8 16,6 17 9 23 13 S 0,0
02.06.2020 15:00:00 26,0 17,6 20 11 24 13 S 0,0
02.06.2020 14:00:00 25,4 17,3 19 10 22 12 SSE -
02.06.2020 13:00:00 25,9 18,3 19 10 23 12 S 0,0
02.06.2020 12:00:00 25,3 18,8 18 10 20 11 S 0,0
02.06.2020 11:00:00 24,7 19,3 14 8 17 9 S 0,0
02.06.2020 10:00:00 24,1 19,4 13 7 15 8 S 0,0
02.06.2020 09:00:00 23,5 18,8 6 3 8 5 S 0,0
02.06.2020 08:00:00 21,3 18,3 2 1 5 3 WSW -
02.06.2020 07:00:00 19,8 17,9 3 1 7 4 S 0,0
02.06.2020 06:00:00 19,5 18,0 1 1 5 3 S 0,0
02.06.2020 05:00:00 19,6 17,9 3 1 8 4 S 0,0
02.06.2020 04:00:00 19,6 17,8 2 1 8 4 SSW 0,0
02.06.2020 03:00:00 19,8 18,1 3 1 14 7 WSW 0,0
02.06.2020 02:00:00 20,3 18,2 6 3 17 9 SSW -
02.06.2020 01:00:00 20,6 18,4 16 9 20 11 S 0,0
02.06.2020 00:00:00 20,8 18,5 15 8 18 10 S 0,0
01.06.2020 23:00:00 20,8 18,5 15 8 17 9 S 0,0
01.06.2020 22:00:00 20,9 18,1 14 7 18 10 S 0,0
01.06.2020 21:00:00 21,1 17,7 16 8 22 12 S 0,0
01.06.2020 20:00:00 21,5 17,9 17 9 20 11 S -
01.06.2020 19:00:00 22,1 17,9 16 9 20 11 S 0,0
01.06.2020 18:00:00 23,6 18,0 14 8 16 9 SSE 0,0
01.06.2020 17:00:00 24,5 17,7 13 7 19 10 S 0,0
01.06.2020 16:00:00 25,2 18,2 16 9 21 11 S 0,0
01.06.2020 15:00:00 25,0 18,2 10 5 14 7 SSE 0,0
01.06.2020 14:00:00 23,6 17,8 9 5 16 9 SE -
01.06.2020 13:00:00 25,2 18,2 13 7 17 9 SSE 0,0
01.06.2020 12:00:00 25,2 18,2 12 6 15 8 SSE 0,0
01.06.2020 11:00:00 24,3 18,0 10 5 14 8 SSE 0,0
01.06.2020 10:00:00 23,2 18,1 12 7 15 8 ESE 0,0
01.06.2020 09:00:00 22,6 18,2 9 5 16 9 ESE 0,0
01.06.2020 08:00:00 21,2 18,0 14 8 21 11 S -
01.06.2020 07:00:00 20,3 17,3 17 9 20 11 S 0,0
01.06.2020 06:00:00 20,0 17,6 16 8 19 10 SSE 0,0
01.06.2020 05:00:00 19,8 17,4 12 7 16 8 SSE 0,0
01.06.2020 04:00:00 19,8 17,4 10 5 16 9 E 0,0
01.06.2020 03:00:00 19,9 17,5 11 6 15 8 ESE 0,0
01.06.2020 02:00:00 19,7 17,1 9 5 11 6 E -
01.06.2020 01:00:00 19,9 16,9 6 3 10 5 SSE 0,0
01.06.2020 00:00:00 20,1 16,7 8 4 16 9 SE 0,0
31.05.2020 23:00:00 20,3 16,9 14 7 22 12 SE 0,0
31.05.2020 22:00:00 20,3 16,7 18 10 21 11 SSE 0,0
31.05.2020 21:00:00 20,4 16,4 16 9 21 11 SSE 0,0
31.05.2020 20:00:00 20,9 16,7 18 10 22 12 S -
31.05.2020 19:00:00 21,6 17,0 19 10 28 15 S 0,0
31.05.2020 18:00:00 22,0 16,7 25 13 31 17 S 0,0
31.05.2020 17:00:00 23,1 16,1 27 14 32 18 S 0,0
31.05.2020 16:00:00 24,4 16,4 23 12 28 15 S 0,0
31.05.2020 15:00:00 24,4 16,1 19 10 24 13 S 0,0
31.05.2020 14:00:00 24,7 16,6 19 10 24 13 SSE -
31.05.2020 13:00:00 24,4 16,4 16 9 22 12 SSE 0,0
31.05.2020 12:00:00 24,5 16,7 16 9 22 12 SSE 0,0
31.05.2020 11:00:00 23,7 17,2 18 10 22 12 S 0,0
31.05.2020 10:00:00 23,3 17,3 14 8 19 11 S 0,0
31.05.2020 09:00:00 21,8 17,8 8 5 15 8 S 0,0
31.05.2020 08:00:00 21,1 17,7 4 2 7 4 SW -
31.05.2020 07:00:00 18,9 17,2 1 1 7 4 WSW 0,0
31.05.2020 06:00:00 18,8 17,0 3 2 7 4 SSW 0,0
31.05.2020 05:00:00 18,6 16,9 4 2 7 4 SW 0,0
31.05.2020 04:00:00 18,8 16,8 3 1 9 5 SW 0,0
31.05.2020 03:00:00 19,1 16,9 2 1 9 5 SSW 0,0
31.05.2020 02:00:00 19,0 16,6 2 1 10 5 SW -
31.05.2020 01:00:00 19,3 16,7 3 1 14 7 SW 0,0
31.05.2020 00:00:00 19,5 16,7 4 2 14 8 WSW 0,0
30.05.2020 23:00:00 20,0 16,5 5 3 21 12 SW 0,0
30.05.2020 22:00:00 20,4 16,8 13 7 19 11 S 0,0
30.05.2020 21:00:00 20,7 16,3 16 9 20 11 S 0,0
30.05.2020 20:00:00 21,4 16,6 16 8 21 12 S -
30.05.2020 19:00:00 21,9 16,4 16 9 21 11 S 0,0
30.05.2020 18:00:00 23,3 16,1 14 8 22 12 S 0,0
30.05.2020 17:00:00 24,4 16,4 16 9 23 12 S 0,0
30.05.2020 16:00:00 24,6 16,3 17 9 21 11 S 0,0
30.05.2020 15:00:00 24,0 16,6 13 7 16 9 SE 0,0
30.05.2020 14:00:00 23,7 15,2 8 4 13 7 ENE -
30.05.2020 13:00:00 23,9 15,7 7 4 14 7 E 0,0
30.05.2020 12:00:00 23,5 15,5 9 5 14 7 ENE 0,0
30.05.2020 11:00:00 23,6 15,3 7 4 13 7 ENE 0,0
30.05.2020 10:00:00 22,7 15,3 9 5 13 7 NE 0,0
30.05.2020 09:00:00 23,5 17,2 8 4 13 7 NNW 0,0
30.05.2020 08:00:00 21,0 16,8 10 5 14 7 NNW -
30.05.2020 07:00:00 19,0 15,7 10 5 13 7 NNW 0,0
30.05.2020 06:00:00 18,9 15,5 5 3 7 4 N 0,0
30.05.2020 05:00:00 19,1 15,3 3 1 5 3 N 0,0
30.05.2020 04:00:00 19,2 15,3 1 1 11 6 ESE 0,0
30.05.2020 03:00:00 19,4 15,4 3 2 10 6 SE 0,0
30.05.2020 02:00:00 19,5 15,0 4 2 11 6 S -
30.05.2020 01:00:00 19,8 14,6 7 4 14 8 ESE 0,0
30.05.2020 00:00:00 20,0 15,0 10 5 15 8 SE 0,0
29.05.2020 23:00:00 19,9 14,7 10 5 16 8 SSE 0,0
29.05.2020 22:00:00 19,9 14,5 10 6 16 9 SSE 0,0
29.05.2020 21:00:00 20,2 13,5 14 8 19 11 S 0,0
29.05.2020 20:00:00 20,6 12,5 15 8 20 11 S -
29.05.2020 19:00:00 21,3 14,2 14 8 17 9 S 0,0
29.05.2020 18:00:00 22,7 15,3 14 8 19 10 S 0,0
29.05.2020 17:00:00 23,8 15,5 16 8 19 10 S 0,0
29.05.2020 16:00:00 24,1 15,3 15 8 22 12 S 0,0
29.05.2020 15:00:00 24,5 16,0 17 9 23 12 S 0,0
29.05.2020 14:00:00 25,1 16,2 17 9 23 12 S -
29.05.2020 13:00:00 24,9 16,6 16 9 21 12 S 0,0
29.05.2020 12:00:00 24,5 17,0 17 9 21 11 S 0,0
29.05.2020 11:00:00 - - 16 9 - - S -
29.05.2020 10:00:00 - - - - - - - -
29.05.2020 09:00:00 22,2 17,4 10 5 13 7 S 0,0
29.05.2020 08:00:00 21,2 16,6 1 0 7 4 W -
29.05.2020 07:00:00 18,6 16,0 1 1 7 4 ESE 0,0
29.05.2020 06:00:00 17,6 16,1 3 2 8 4 SW 0,0
29.05.2020 05:00:00 17,8 16,5 1 0 9 5 WSW 0,0
29.05.2020 04:00:00 18,0 16,5 2 1 12 7 SW 0,0
29.05.2020 03:00:00 18,2 16,6 1 0 12 6 SSW 0,0
29.05.2020 02:00:00 18,6 16,4 0 0 7 4 SSW -
29.05.2020 01:00:00 18,8 16,2 4 2 9 5 W 0,0
29.05.2020 00:00:00 19,0 16,4 4 2 18 10 SW 0,0
28.05.2020 23:00:00 19,7 16,6 14 8 19 10 S 0,0
28.05.2020 22:00:00 19,8 16,5 14 8 18 10 S 0,0
28.05.2020 21:00:00 20,2 16,5 14 7 18 10 S 0,0
28.05.2020 20:00:00 20,5 16,6 15 8 19 10 S -

tt = temperature
td = dewpoint
ff = wind speed
fx = gusts
dd = wind direction
rr = precipitation

Next stations